GRZ521 Details

Departure: Adak Airport (PADK)
Arrival: Ted Stevens Anchorage International Airport (PANC)
Route: ADK028021 SIYNY G8 AUB STREW V456 TUCKS AMOTT4


Current Weather Information
PADK 251056Z AUTO 01016KT 10SM OVC015 04/02 A2995 RMK AO2 RAE23 SLP141 P0000 T00390022
PANC 251053Z 00000KT 10SM FEW070 07/04 A3014 RMK AO2 SLP207 T00670044